Time;durP1;ratioP1;P1;durP2;ratioP2;P2;SDS_P1;SDS_P2;PMS_P1;PMS_P2;Temp;Humidity;BMP_temperature;BMP_pressure;BME280_temperature;BME280_humidity;BME280_pressure;Samples;Min_cycle;Max_cycle;Signal;HPM_P1;HPM_P2
2020/12/29 00:00:52;;;;;;;59.85;29.20;;;3.20;79.50;;;;;;5093139;28;20062;-40
2020/12/29 00:03:18;;;;;;;60.85;28.77;;;3.10;79.60;;;;;;5094078;28;20035;-39
2020/12/29 00:05:45;;;;;;;61.72;28.98;;;3.10;79.60;;;;;;5092402;28;20020;-40
2020/12/29 00:08:11;;;;;;;52.65;25.95;;;3.10;79.90;;;;;;5093032;28;20419;-40
2020/12/29 00:10:37;;;;;;;47.10;23.95;;;3.10;80.10;;;;;;5091075;28;20114;-40
2020/12/29 00:13:03;;;;;;;46.85;23.45;;;3.10;80.30;;;;;;5093327;28;20035;-40
2020/12/29 00:15:29;;;;;;;57.28;27.80;;;3.10;80.30;;;;;;5092510;28;20020;-41
2020/12/29 00:17:55;;;;;;;57.83;29.35;;;3.10;80.40;;;;;;5092323;28;20357;-40
2020/12/29 00:20:21;;;;;;;60.28;28.58;;;3.10;80.30;;;;;;5093157;28;20040;-40
2020/12/29 00:22:47;;;;;;;53.53;27.45;;;3.10;80.40;;;;;;5093216;28;20035;-40
2020/12/29 00:25:16;;;;;;;60.58;28.13;;;3.10;80.30;;;;;;5093508;28;20020;-40
2020/12/29 00:27:42;;;;;;;49.03;26.08;;;3.10;80.40;;;;;;5096441;28;20099;-40
2020/12/29 00:30:08;;;;;;;52.05;26.13;;;3.10;80.40;;;;;;5098165;28;20110;-40
2020/12/29 00:32:33;;;;;;;44.30;22.88;;;3.20;80.40;;;;;;5097592;28;20452;-40
2020/12/29 00:34:59;;;;;;;49.80;23.52;;;3.20;80.40;;;;;;5098343;28;20042;-39
2020/12/29 00:37:25;;;;;;;49.25;23.70;;;3.20;80.50;;;;;;5097734;28;20027;-40
2020/12/29 00:39:51;;;;;;;42.35;21.52;;;3.20;80.50;;;;;;5096480;28;20043;-40
2020/12/29 00:42:16;;;;;;;49.03;25.13;;;3.20;80.50;;;;;;5097142;28;20136;-40
2020/12/29 00:44:42;;;;;;;46.00;23.73;;;3.20;80.50;;;;;;5097165;28;20097;-39
2020/12/29 00:47:08;;;;;;;46.30;23.95;;;3.20;80.60;;;;;;5096604;28;20024;-40
2020/12/29 00:49:37;;;;;;;50.15;24.40;;;3.30;80.50;;;;;;5096998;28;20040;-40
2020/12/29 00:52:03;;;;;;;45.60;22.55;;;3.30;80.60;;;;;;5096388;28;20028;-40
2020/12/29 00:54:29;;;;;;;44.08;23.05;;;3.30;80.40;;;;;;5096075;28;20028;-40
2020/12/29 00:56:54;;;;;;;40.42;21.60;;;3.30;80.20;;;;;;5096584;28;20039;-40
2020/12/29 00:59:20;;;;;;;50.90;23.52;;;3.30;80.10;;;;;;5098050;28;20043;-39
2020/12/29 01:01:54;;;;;;;47.78;24.23;;;3.30;80.10;;;;;;5098016;28;20066;-40
2020/12/29 01:04:19;;;;;;;43.05;21.30;;;3.30;80.10;;;;;;5098623;28;20036;-39
2020/12/29 01:06:45;;;;;;;43.28;22.15;;;3.30;79.90;;;;;;5098283;28;20027;-39
2020/12/29 01:09:11;;;;;;;39.22;20.27;;;3.30;80.00;;;;;;5098323;28;20216;-39
2020/12/29 01:11:36;;;;;;;44.25;22.52;;;3.30;80.00;;;;;;5098039;28;20377;-40
2020/12/29 01:14:02;;;;;;;45.65;21.27;;;3.30;80.00;;;;;;5098302;28;20031;-39
2020/12/29 01:16:28;;;;;;;44.83;21.98;;;3.30;80.00;;;;;;5096888;28;20024;-40
2020/12/29 01:18:54;;;;;;;37.20;19.40;;;3.30;79.80;;;;;;5097863;28;20052;-40
2020/12/29 01:21:19;;;;;;;40.42;21.77;;;3.30;79.90;;;;;;5097256;28;20143;-40
2020/12/29 01:23:45;;;;;;;42.50;22.17;;;3.30;79.90;;;;;;5097997;28;20028;-40
2020/12/29 01:26:11;;;;;;;39.47;21.00;;;3.20;79.70;;;;;;5097267;28;20321;-40
2020/12/29 01:28:37;;;;;;;46.20;22.52;;;3.20;79.70;;;;;;5096824;28;20336;-40
2020/12/29 01:31:03;;;;;;;52.75;24.15;;;3.20;79.80;;;;;;5095773;28;20024;-40
2020/12/29 01:33:28;;;;;;;47.90;23.30;;;3.20;79.80;;;;;;5096464;28;20032;-41
2020/12/29 01:35:54;;;;;;;53.30;23.70;;;3.10;79.90;;;;;;5096760;28;20032;-41
2020/12/29 01:38:20;;;;;;;55.50;26.75;;;3.10;80.00;;;;;;5097285;28;20414;-39
2020/12/29 01:40:46;;;;;;;44.08;23.88;;;3.10;80.10;;;;;;5096918;28;20031;-41
2020/12/29 01:43:12;;;;;;;50.83;25.02;;;3.00;80.00;;;;;;5097071;28;20118;-39
2020/12/29 01:45:38;;;;;;;55.05;27.27;;;3.00;80.20;;;;;;5096791;28;20119;-40
2020/12/29 01:48:04;;;;;;;60.95;27.48;;;3.00;80.10;;;;;;5097075;28;20086;-39
2020/12/29 01:50:30;;;;;;;62.20;29.17;;;3.00;80.40;;;;;;5095369;28;20429;-40
2020/12/29 01:53:01;;;;;;;62.40;28.45;;;3.00;80.60;;;;;;5095432;28;20062;-39
2020/12/29 01:55:28;;;;;;;56.20;25.95;;;3.00;80.70;;;;;;5095513;28;20055;-40
2020/12/29 01:57:55;;;;;;;63.30;27.83;;;2.90;80.60;;;;;;5095466;28;20024;-39
2020/12/29 02:00:23;;;;;;;56.08;24.63;;;3.00;80.70;;;;;;5095309;28;20340;-40
2020/12/29 02:02:49;;;;;;;65.57;27.90;;;2.90;80.70;;;;;;5095211;28;20406;-39
2020/12/29 02:05:15;;;;;;;55.97;27.77;;;2.90;80.80;;;;;;5095818;28;20179;-40
2020/12/29 02:07:42;;;;;;;57.90;27.33;;;2.90;80.90;;;;;;5096385;28;20020;-41
2020/12/29 02:10:07;;;;;;;63.05;29.05;;;2.90;81.00;;;;;;5096876;28;20043;-40
2020/12/29 02:12:36;;;;;;;70.20;29.02;;;2.90;81.10;;;;;;5096309;28;20020;-41
2020/12/29 02:15:05;;;;;;;65.18;27.75;;;2.90;81.00;;;;;;5096426;28;20054;-39
2020/12/29 02:17:31;;;;;;;69.93;31.00;;;2.90;81.10;;;;;;5096091;28;20031;-39
2020/12/29 02:19:57;;;;;;;74.70;30.67;;;2.90;81.30;;;;;;5096498;28;20059;-39
2020/12/29 02:22:24;;;;;;;70.43;31.67;;;2.90;81.40;;;;;;5096177;28;20114;-41
2020/12/29 02:24:58;;;;;;;66.05;30.13;;;2.90;81.40;;;;;;5096843;28;20311;-39
2020/12/29 02:27:28;;;;;;;71.00;32.00;;;2.90;81.30;;;;;;5096379;28;20027;-39
2020/12/29 02:29:54;;;;;;;73.67;32.80;;;2.90;81.30;;;;;;5096040;28;20089;-38
2020/12/29 02:32:20;;;;;;;70.18;33.00;;;2.90;81.30;;;;;;5095651;28;20240;-39
2020/12/29 02:34:46;;;;;;;79.38;35.70;;;2.90;81.60;;;;;;5095932;28;20031;-39
2020/12/29 02:37:12;;;;;;;78.85;34.08;;;2.90;81.60;;;;;;5095266;28;20020;-40
2020/12/29 02:39:41;;;;;;;81.60;32.60;;;2.90;81.60;;;;;;5096533;28;20047;-38
2020/12/29 02:42:08;;;;;;;89.97;36.28;;;2.90;81.60;;;;;;5095799;28;20444;-39
2020/12/29 02:44:34;;;;;;;73.00;32.95;;;2.90;81.50;;;;;;5095819;28;20047;-40
2020/12/29 02:47:00;;;;;;;71.60;32.50;;;2.90;81.40;;;;;;5095712;28;20337;-40
2020/12/29 02:49:26;;;;;;;73.40;33.38;;;2.90;81.50;;;;;;5094721;28;20019;-41
2020/12/29 02:51:51;;;;;;;84.55;35.33;;;2.90;81.40;;;;;;5094494;28;20059;-41
2020/12/29 02:54:17;;;;;;;73.25;31.85;;;2.90;81.40;;;;;;5093790;28;20376;-39
2020/12/29 02:56:44;;;;;;;86.85;34.33;;;2.90;81.40;;;;;;5094634;28;20379;-40
2020/12/29 02:59:11;;;;;;;72.88;32.00;;;2.90;81.50;;;;;;5094970;28;20040;-39
2020/12/29 03:01:36;;;;;;;70.97;32.42;;;3.00;81.60;;;;;;5094594;28;20031;-40
2020/12/29 03:04:02;;;;;;;62.47;29.67;;;3.00;81.70;;;;;;5094674;28;20036;-39
2020/12/29 03:06:28;;;;;;;65.40;30.40;;;3.00;81.70;;;;;;5093468;28;20016;-40
2020/12/29 03:08:54;;;;;;;69.88;32.10;;;3.00;81.60;;;;;;5094755;28;20222;-39
2020/12/29 03:11:31;;;;;;;65.88;29.77;;;2.90;81.50;;;;;;5094199;28;20024;-41
2020/12/29 03:13:59;;;;;;;70.90;29.15;;;2.90;81.60;;;;;;5094162;28;20404;-39
2020/12/29 03:16:25;;;;;;;83.97;31.58;;;3.00;81.60;;;;;;5091645;28;20107;-40
2020/12/29 03:18:52;;;;;;;70.10;31.25;;;2.90;81.60;;;;;;5094308;28;20131;-39
2020/12/29 03:21:17;;;;;;;72.50;28.65;;;2.90;81.50;;;;;;5093883;28;20032;-39
2020/12/29 03:23:43;;;;;;;65.45;30.13;;;2.90;81.70;;;;;;5092055;28;20050;-39
2020/12/29 03:26:09;;;;;;;69.85;31.73;;;2.90;81.80;;;;;;5093759;28;20028;-40
2020/12/29 03:28:36;;;;;;;74.05;29.90;;;3.00;81.90;;;;;;5094032;28;20020;-39
2020/12/29 03:31:01;;;;;;;70.80;28.92;;;3.00;81.90;;;;;;5093862;28;20020;-40
2020/12/29 03:33:27;;;;;;;69.95;30.08;;;3.00;81.90;;;;;;5094205;28;20043;-40
2020/12/29 03:35:54;;;;;;;60.95;26.17;;;3.00;81.90;;;;;;5093510;28;20016;-40
2020/12/29 03:38:23;;;;;;;68.53;27.48;;;3.00;81.90;;;;;;5094416;28;20035;-39
2020/12/29 03:40:49;;;;;;;62.38;25.70;;;3.00;82.00;;;;;;5093417;28;20070;-39
2020/12/29 03:43:16;;;;;;;64.78;25.55;;;3.00;81.90;;;;;;5094365;28;20131;-39
2020/12/29 03:45:46;;;;;;;85.32;32.58;;;3.00;82.00;;;;;;5093513;28;20020;-40
2020/12/29 03:48:15;;;;;;;73.80;32.08;;;3.00;82.10;;;;;;5094706;28;20117;-40
2020/12/29 03:50:41;;;;;;;58.10;26.00;;;3.00;82.10;;;;;;5093564;28;20040;-40
2020/12/29 03:53:08;;;;;;;63.67;26.27;;;3.10;82.30;;;;;;5093899;28;20032;-40
2020/12/29 03:55:35;;;;;;;51.53;24.50;;;3.10;82.30;;;;;;5093416;28;20016;-40
2020/12/29 03:58:01;;;;;;;57.80;23.83;;;3.10;82.10;;;;;;5093924;28;20054;-39
2020/12/29 04:00:27;;;;;;;66.30;26.45;;;3.10;82.00;;;;;;5093747;28;20067;-40
2020/12/29 04:02:52;;;;;;;61.65;24.55;;;3.10;82.10;;;;;;5097691;28;20055;-39
2020/12/29 04:05:18;;;;;;;65.85;25.30;;;3.10;82.30;;;;;;5097698;28;20032;-40
2020/12/29 04:07:45;;;;;;;53.63;23.70;;;3.10;82.30;;;;;;5098367;28;20028;-40
2020/12/29 04:10:11;;;;;;;60.58;24.45;;;3.10;82.00;;;;;;5099008;28;20028;-40
2020/12/29 04:12:37;;;;;;;55.13;22.42;;;3.20;82.10;;;;;;5098364;28;20035;-40
2020/12/29 04:15:04;;;;;;;57.15;22.13;;;3.20;82.10;;;;;;5099711;28;20376;-39
2020/12/29 04:17:34;;;;;;;61.72;21.83;;;3.20;82.10;;;;;;5098686;28;20020;-40
2020/12/29 04:20:00;;;;;;;48.17;21.58;;;3.20;82.00;;;;;;5098443;28;20056;-39
2020/12/29 04:22:30;;;;;;;69.40;23.95;;;3.20;81.90;;;;;;5098583;28;20039;-41
2020/12/29 04:24:56;;;;;;;56.47;23.25;;;3.20;82.10;;;;;;5099507;28;20032;-39
2020/12/29 04:27:22;;;;;;;60.42;23.98;;;3.20;82.00;;;;;;5098310;28;20020;-40
2020/12/29 04:29:47;;;;;;;47.90;22.73;;;3.20;82.10;;;;;;5098658;28;20341;-39
2020/12/29 04:32:13;;;;;;;52.17;25.15;;;3.10;82.00;;;;;;5098327;28;20020;-41
2020/12/29 04:34:39;;;;;;;55.78;23.67;;;3.10;82.20;;;;;;5098393;28;20364;-39
2020/12/29 04:37:04;;;;;;;56.72;23.27;;;3.20;82.40;;;;;;5098617;28;20019;-40
2020/12/29 04:39:30;;;;;;;62.60;23.73;;;3.10;82.30;;;;;;5098829;28;20130;-40
2020/12/29 04:42:03;;;;;;;46.38;22.75;;;3.20;82.10;;;;;;5097845;28;20016;-41
2020/12/29 04:44:29;;;;;;;53.15;21.52;;;3.20;82.30;;;;;;5098749;28;20040;-39
2020/12/29 04:46:55;;;;;;;42.75;19.33;;;3.20;82.40;;;;;;5098401;28;20035;-41
2020/12/29 04:49:23;;;;;;;51.10;22.30;;;3.10;82.40;;;;;;5098110;28;20426;-39
2020/12/29 04:51:50;;;;;;;52.63;20.70;;;3.20;82.60;;;;;;5097868;28;20516;-40
2020/12/29 04:54:18;;;;;;;62.13;26.13;;;3.20;82.40;;;;;;5097923;28;20435;-39
2020/12/29 04:56:53;;;;;;;67.13;26.45;;;3.30;82.40;;;;;;5098035;28;20012;-40
2020/12/29 04:59:18;;;;;;;48.10;22.30;;;3.20;82.20;;;;;;5079997;28;20069;-39
2020/12/29 05:01:44;;;;;;;62.63;25.73;;;3.20;82.10;;;;;;5076818;28;20107;-40
2020/12/29 05:04:10;;;;;;;59.50;24.30;;;3.20;82.20;;;;;;5077266;28;20075;-39
2020/12/29 05:06:36;;;;;;;50.00;22.45;;;3.20;82.20;;;;;;5077031;28;20077;-42
2020/12/29 05:09:01;;;;;;;65.40;27.35;;;3.20;82.20;;;;;;5076017;28;20371;-39
2020/12/29 05:11:33;;;;;;;84.18;36.25;;;3.20;82.30;;;;;;5075480;28;20468;-39
2020/12/29 05:13:59;;;;;;;57.08;24.20;;;3.20;82.30;;;;;;5074910;28;20025;-39
2020/12/29 05:16:25;;;;;;;60.58;29.15;;;3.20;82.30;;;;;;5075591;28;20082;-40
2020/12/29 05:18:55;;;;;;;56.30;24.95;;;3.20;82.40;;;;;;5076422;28;20060;-39
2020/12/29 05:21:26;;;;;;;58.80;25.50;;;3.20;82.40;;;;;;5077426;28;20032;-39
2020/12/29 05:23:53;;;;;;;62.60;25.83;;;3.10;82.30;;;;;;5076327;28;20032;-38
2020/12/29 05:26:19;;;;;;;52.65;23.48;;;3.10;82.40;;;;;;5093006;28;20027;-39
2020/12/29 05:28:46;;;;;;;77.90;29.05;;;3.10;82.40;;;;;;5096420;28;20024;-39
2020/12/29 05:31:12;;;;;;;75.85;27.88;;;3.10;82.50;;;;;;5095450;28;20028;-39
2020/12/29 05:33:39;;;;;;;61.38;27.08;;;3.10;82.70;;;;;;5097201;28;20034;-39
2020/12/29 05:36:04;;;;;;;71.53;29.08;;;3.10;83.00;;;;;;5096992;28;20020;-39
2020/12/29 05:38:31;;;;;;;58.08;27.65;;;3.20;83.10;;;;;;5097173;28;20376;-39
2020/12/29 05:40:59;;;;;;;57.28;23.90;;;3.20;83.10;;;;;;5096971;28;20023;-40
2020/12/29 05:43:28;;;;;;;60.97;24.67;;;3.20;83.10;;;;;;5097117;28;20421;-39
2020/12/29 05:45:54;;;;;;;60.17;24.70;;;3.20;83.10;;;;;;5096703;28;20120;-39
2020/12/29 05:48:20;;;;;;;64.88;26.08;;;3.30;83.10;;;;;;5097147;28;20058;-39
2020/12/29 05:50:46;;;;;;;61.95;25.23;;;3.30;83.00;;;;;;5096703;28;20418;-39
2020/12/29 05:53:12;;;;;;;56.97;24.92;;;3.30;83.00;;;;;;5096549;28;20127;-39
2020/12/29 05:55:37;;;;;;;77.18;30.98;;;3.30;83.00;;;;;;5096735;28;20023;-39
2020/12/29 05:58:10;;;;;;;70.68;31.58;;;3.40;82.90;;;;;;5097189;28;20523;-39
2020/12/29 06:00:40;;;;;;;56.30;25.25;;;3.40;82.80;;;;;;5096269;28;20036;-39
2020/12/29 06:03:08;;;;;;;74.47;26.80;;;3.40;82.70;;;;;;5097145;28;20031;-39
2020/12/29 06:05:37;;;;;;;51.35;23.92;;;3.40;82.50;;;;;;5096043;28;20032;-39
2020/12/29 06:08:05;;;;;;;54.78;24.27;;;3.40;82.50;;;;;;5096026;28;20024;-39
2020/12/29 06:10:35;;;;;;;49.58;22.20;;;3.40;82.50;;;;;;5095016;28;20085;-39
2020/12/29 06:13:05;;;;;;;58.90;25.67;;;3.40;82.50;;;;;;5092696;28;20373;-39
2020/12/29 06:15:36;;;;;;;47.88;21.90;;;3.40;82.20;;;;;;5094424;28;20031;-39
2020/12/29 06:18:03;;;;;;;;;;;3.40;82.30;;;;;;5095190;28;20077;-39
2020/12/29 06:21:02;;;;;;;43.67;21.83;;;3.40;82.10;;;;;;5093874;28;20002;-39
2020/12/29 06:23:32;;;;;;;53.20;23.10;;;3.30;83.10;;;;;;5094344;28;20032;-39
2020/12/29 06:26:02;;;;;;;51.33;20.92;;;3.40;82.80;;;;;;5094313;28;20060;-39
2020/12/29 06:28:31;;;;;;;43.75;22.30;;;3.40;82.90;;;;;;5096098;28;20032;-39
2020/12/29 06:30:58;;;;;;;50.13;26.70;;;3.40;82.90;;;;;;5096138;28;20031;-39
2020/12/29 06:33:25;;;;;;;60.15;25.95;;;3.40;82.90;;;;;;5095790;28;20333;-40
2020/12/29 06:35:53;;;;;;;59.58;24.60;;;3.40;82.70;;;;;;5093075;28;20020;-41
2020/12/29 06:38:28;;;;;;;53.47;21.73;;;3.40;82.70;;;;;;5095634;28;20059;-40
2020/12/29 06:40:55;;;;;;;85.63;35.30;;;3.40;82.80;;;;;;5094351;28;20036;-40
2020/12/29 06:43:21;;;;;;;72.70;30.02;;;3.40;82.80;;;;;;5096471;28;20036;-39
2020/12/29 06:45:47;;;;;;;90.90;43.28;;;3.40;82.90;;;;;;5095246;28;20043;-41
2020/12/29 06:48:17;;;;;;;49.75;23.60;;;3.40;82.80;;;;;;5094019;28;20092;-39
2020/12/29 06:50:45;;;;;;;66.95;29.55;;;3.40;82.80;;;;;;5095330;28;20035;-40
2020/12/29 06:53:18;;;;;;;64.68;31.30;;;3.40;82.70;;;;;;5075245;28;20032;-42
2020/12/29 06:55:48;;;;;;;60.00;26.55;;;3.40;82.80;;;;;;5094190;28;20036;-40
2020/12/29 06:58:34;;;;;;;48.40;21.08;;;3.50;83.00;;;;;;5091819;28;20028;-40
2020/12/29 07:01:22;;;;;;;47.58;21.63;;;3.50;83.00;;;;;;5089611;28;20115;-40
2020/12/29 07:04:02;;;;;;;48.33;21.15;;;3.50;83.10;;;;;;5084746;28;20039;-41
2020/12/29 07:06:33;;;;;;;46.95;22.73;;;3.50;83.00;;;;;;5094055;28;20382;-40
2020/12/29 07:09:08;;;;;;;48.88;20.42;;;3.50;82.90;;;;;;5095189;28;20035;-40
2020/12/29 07:11:34;;;;;;;52.10;23.55;;;3.50;82.80;;;;;;5096626;28;20023;-41
2020/12/29 07:14:04;;;;;;;48.80;22.95;;;3.50;82.80;;;;;;5104908;28;20036;-41
2020/12/29 07:16:30;;;;;;;41.95;19.33;;;3.50;82.80;;;;;;5095504;28;20147;-40
2020/12/29 07:19:28;;;;;;;45.92;21.85;;;3.50;82.80;;;;;;5094606;28;20713;-41
2020/12/29 07:21:54;;;;;;;50.13;23.92;;;3.50;82.80;;;;;;5078661;28;20044;-40
2020/12/29 07:24:20;;;;;;;58.38;27.63;;;3.50;82.70;;;;;;5093710;28;20038;-40
2020/12/29 07:26:48;;;;;;;64.13;27.60;;;3.50;82.80;;;;;;5093008;28;20609;-42
2020/12/29 07:29:13;;;;;;;64.43;29.23;;;3.50;83.00;;;;;;5098529;28;20318;-41
2020/12/29 07:31:43;;;;;;;69.05;31.35;;;3.60;83.00;;;;;;5091797;28;20028;-41
2020/12/29 07:34:13;;;;;;;63.35;30.65;;;3.50;82.90;;;;;;5091754;28;20430;-41
2020/12/29 07:36:47;;;;;;;74.63;25.98;;;3.50;83.00;;;;;;5096065;28;20020;-42
2020/12/29 07:39:17;;;;;;;67.35;29.10;;;3.50;83.00;;;;;;5098677;28;20040;-40
2020/12/29 07:41:43;;;;;;;57.15;26.30;;;3.60;83.00;;;;;;5098768;28;20039;-41
2020/12/29 07:44:09;;;;;;;66.15;30.63;;;3.60;83.00;;;;;;5100230;28;20036;-39
2020/12/29 07:46:35;;;;;;;69.25;28.58;;;3.60;83.00;;;;;;5096916;28;20020;-43
2020/12/29 07:49:02;;;;;;;55.95;25.52;;;3.50;83.60;;;;;;5099111;28;20346;-42
2020/12/29 07:51:27;;;;;;;70.78;30.77;;;3.50;83.10;;;;;;5094777;28;20055;-41
2020/12/29 07:53:53;;;;;;;75.50;29.52;;;3.60;83.20;;;;;;5098456;28;20055;-41
2020/12/29 07:56:20;;;;;;;70.30;28.77;;;3.60;83.30;;;;;;5096788;28;20341;-40
2020/12/29 07:58:46;;;;;;;84.13;36.58;;;3.60;83.40;;;;;;5106043;28;20036;-39
2020/12/29 08:01:13;;;;;;;69.40;31.52;;;3.60;83.40;;;;;;5113484;28;20035;-39
2020/12/29 08:03:39;;;;;;;71.00;32.28;;;3.70;83.40;;;;;;5098802;28;20028;-42
2020/12/29 08:06:14;;;;;;;59.55;27.08;;;3.70;83.40;;;;;;5098265;28;20069;-41
2020/12/29 08:08:41;;;;;;;60.90;25.73;;;3.70;83.30;;;;;;5100032;28;20024;-39
2020/12/29 08:11:08;;;;;;;63.38;27.42;;;3.70;83.30;;;;;;5097456;28;20036;-39
2020/12/29 08:13:34;;;;;;;79.68;29.35;;;3.70;83.30;;;;;;5097904;28;20362;-41
2020/12/29 08:16:01;;;;;;;78.40;29.45;;;3.70;83.30;;;;;;5097285;28;20027;-43
2020/12/29 08:18:28;;;;;;;65.20;29.35;;;3.80;83.40;;;;;;5096588;28;20054;-41
2020/12/29 08:20:58;;;;;;;67.03;34.28;;;3.80;83.30;;;;;;5095561;28;20040;-41
2020/12/29 08:23:28;;;;;;;141.45;65.80;;;3.80;83.40;;;;;;5097134;28;20027;-42
2020/12/29 08:25:58;;;;;;;87.13;39.83;;;3.80;83.60;;;;;;5096247;28;20024;-42
2020/12/29 08:28:27;;;;;;;77.25;37.08;;;3.90;83.60;;;;;;5097408;28;20054;-41
2020/12/29 08:30:54;;;;;;;87.15;45.08;;;3.90;83.50;;;;;;5096750;28;20031;-44
2020/12/29 08:33:22;;;;;;;70.68;35.47;;;3.90;83.60;;;;;;5097682;28;20036;-40
2020/12/29 08:35:54;;;;;;;66.25;35.00;;;4.00;83.40;;;;;;5090836;28;20032;-40
2020/12/29 08:38:32;;;;;;;72.47;40.58;;;4.00;83.50;;;;;;5084569;28;20033;-40
2020/12/29 08:41:13;;;;;;;65.63;29.10;;;4.10;83.60;;;;;;5075076;28;20047;-41
2020/12/29 08:43:41;;;;;;;;;;;4.10;83.50;;;;;;5078018;28;20032;-40
2020/12/29 08:46:08;;;;;;;67.20;27.83;;;4.20;83.40;;;;;;5077525;28;19940;-40
2020/12/29 08:48:34;;;;;;;62.40;28.75;;;4.20;83.30;;;;;;5088410;28;20044;-41
2020/12/29 08:51:15;;;;;;;93.15;46.28;;;4.20;83.40;;;;;;5097165;28;20136;-41
2020/12/29 08:53:41;;;;;;;91.88;53.15;;;4.20;83.30;;;;;;5097523;28;20028;-41
2020/12/29 08:56:21;;;;;;;98.88;45.78;;;4.20;83.30;;;;;;5097288;28;20130;-41
2020/12/29 08:58:48;;;;;;;71.32;36.95;;;4.30;83.10;;;;;;5097075;28;20058;-42
2020/12/29 09:01:38;;;;;;;76.72;39.50;;;4.30;82.90;;;;;;5096813;28;20418;-42
2020/12/29 09:04:43;;;;;;;70.25;33.80;;;4.30;82.80;;;;;;5097012;28;20063;-41
2020/12/29 09:07:14;;;;;;;67.53;37.30;;;4.30;82.70;;;;;;5054770;28;20095;-41
2020/12/29 09:09:53;;;;;;;83.97;35.67;;;4.30;82.80;;;;;;5071071;28;20457;-42
2020/12/29 09:12:22;;;;;;;73.57;33.35;;;4.30;82.80;;;;;;5076404;28;20025;-42
2020/12/29 09:15:07;;;;;;;65.90;32.67;;;4.30;82.90;;;;;;5082185;28;20342;-41
2020/12/29 09:17:39;;;;;;;55.03;27.77;;;4.30;82.90;;;;;;5093464;28;20032;-41
2020/12/29 09:20:16;;;;;;;68.70;30.23;;;4.30;82.80;;;;;;5094767;28;20047;-43
2020/12/29 09:23:10;;;;;;;69.95;34.80;;;4.30;82.90;;;;;;5097899;28;20032;-44
2020/12/29 09:25:38;;;;;;;69.75;31.48;;;4.30;82.90;;;;;;5093319;28;20028;-43
2020/12/29 09:28:15;;;;;;;91.53;41.78;;;4.30;82.80;;;;;;5096536;28;20373;-44
2020/12/29 09:31:04;;;;;;;72.60;35.00;;;4.30;83.10;;;;;;5095974;28;20433;-43
2020/12/29 09:33:30;;;;;;;62.55;29.05;;;4.40;83.20;;;;;;5092340;28;20434;-44
2020/12/29 09:36:04;;;;;;;66.72;29.48;;;4.40;83.10;;;;;;5096822;28;20035;-44
2020/12/29 09:38:32;;;;;;;68.47;30.63;;;4.40;83.00;;;;;;5096166;28;20127;-47
2020/12/29 09:41:04;;;;;;;71.00;30.02;;;4.40;82.90;;;;;;5095863;28;20582;-44
2020/12/29 09:43:30;;;;;;;75.38;31.40;;;4.40;82.90;;;;;;5092351;28;20028;-45
2020/12/29 09:45:57;;;;;;;73.20;31.30;;;4.40;82.90;;;;;;5096531;28;20034;-44
2020/12/29 09:48:23;;;;;;;58.03;28.90;;;4.40;82.90;;;;;;5095931;28;20127;-44
2020/12/29 09:50:49;;;;;;;85.90;38.13;;;4.40;82.80;;;;;;5090078;28;20790;-44
2020/12/29 09:53:15;;;;;;;58.47;28.45;;;4.40;83.00;;;;;;5096393;28;20028;-44
2020/12/29 09:55:40;;;;;;;62.55;28.00;;;4.40;83.10;;;;;;5096358;28;20030;-43
2020/12/29 09:58:06;;;;;;;68.75;30.98;;;4.40;83.00;;;;;;5096483;28;20067;-45
2020/12/29 10:00:32;;;;;;;66.13;29.98;;;4.50;83.00;;;;;;5086729;28;20098;-43
2020/12/29 10:02:58;;;;;;;76.75;31.92;;;4.50;83.00;;;;;;5094205;28;20437;-44
2020/12/29 10:05:25;;;;;;;80.18;32.30;;;4.50;83.20;;;;;;5096104;28;20363;-44
2020/12/29 10:07:50;;;;;;;67.28;29.15;;;4.50;83.30;;;;;;5096041;28;20362;-43
2020/12/29 10:10:16;;;;;;;71.70;32.20;;;4.50;83.40;;;;;;5090993;28;20122;-43
2020/12/29 10:12:42;;;;;;;65.57;30.02;;;4.60;83.40;;;;;;5092694;28;20039;-47
2020/12/29 10:15:09;;;;;;;72.03;34.25;;;4.60;83.50;;;;;;5075541;28;20627;-45
2020/12/29 10:17:36;;;;;;;54.92;28.33;;;4.70;83.60;;;;;;5074717;28;20029;-44
2020/12/29 10:20:03;;;;;;;50.88;24.80;;;4.70;83.70;;;;;;5086483;28;20094;-45
2020/12/29 10:22:31;;;;;;;50.53;25.05;;;4.70;83.60;;;;;;5091835;28;20036;-47
2020/12/29 10:24:57;;;;;;;73.32;31.67;;;4.70;83.40;;;;;;5078417;28;20035;-45
2020/12/29 10:27:24;;;;;;;70.32;30.30;;;4.80;83.30;;;;;;5064534;28;20315;-45
2020/12/29 10:29:50;;;;;;;61.47;29.67;;;4.80;83.10;;;;;;5079849;28;20024;-44
2020/12/29 10:32:20;;;;;;;58.10;27.48;;;4.80;82.90;;;;;;5074097;28;20055;-44
2020/12/29 10:34:50;;;;;;;52.35;26.80;;;4.80;82.90;;;;;;5074401;28;20036;-43
2020/12/29 10:37:19;;;;;;;65.47;30.13;;;4.80;82.90;;;;;;5083461;28;20034;-44
2020/12/29 10:39:45;;;;;;;61.75;31.83;;;4.80;83.10;;;;;;5094269;28;20434;-45
2020/12/29 10:42:12;;;;;;;55.50;26.20;;;4.80;83.10;;;;;;5096198;28;20153;-44
2020/12/29 10:44:39;;;;;;;56.00;28.85;;;4.80;82.90;;;;;;5093136;28;20063;-45
2020/12/29 10:47:05;;;;;;;59.83;28.50;;;4.80;82.90;;;;;;5072999;28;20030;-45
2020/12/29 10:49:31;;;;;;;63.03;26.38;;;4.80;82.90;;;;;;5095951;28;20046;-44
2020/12/29 10:51:57;;;;;;;67.60;31.92;;;4.80;82.80;;;;;;5095639;28;20500;-45
2020/12/29 10:54:24;;;;;;;74.13;37.33;;;4.80;83.00;;;;;;5089408;28;20028;-44
2020/12/29 10:56:50;;;;;;;57.28;28.75;;;4.80;83.10;;;;;;5081755;28;20073;-45
2020/12/29 10:59:16;;;;;;;50.53;27.17;;;4.90;83.30;;;;;;5088745;28;20044;-43
2020/12/29 11:01:42;;;;;;;53.42;27.38;;;4.90;83.30;;;;;;5081245;28;20122;-44
2020/12/29 11:04:11;;;;;;;51.53;27.30;;;4.90;83.30;;;;;;5088579;28;20093;-44
2020/12/29 11:06:37;;;;;;;54.17;25.35;;;4.90;83.20;;;;;;5094583;28;20027;-43
2020/12/29 11:09:04;;;;;;;56.65;28.00;;;4.90;83.30;;;;;;5095629;28;20442;-44
2020/12/29 11:11:30;;;;;;;49.85;26.27;;;4.90;83.40;;;;;;5093531;28;20090;-44
2020/12/29 11:13:56;;;;;;;55.85;27.75;;;4.90;83.50;;;;;;5079425;28;20130;-45
2020/12/29 11:16:22;;;;;;;67.45;32.00;;;5.00;83.70;;;;;;5073979;28;20013;-44
2020/12/29 11:18:50;;;;;;;46.67;25.33;;;5.00;83.70;;;;;;5091642;28;20052;-42
2020/12/29 11:21:20;;;;;;;56.75;27.67;;;5.00;83.80;;;;;;5091438;28;20052;-44
2020/12/29 11:23:47;;;;;;;62.97;31.13;;;5.00;83.90;;;;;;5076963;28;20068;-43
2020/12/29 11:26:14;;;;;;;62.92;31.10;;;5.10;84.00;;;;;;5073587;28;20106;-44
2020/12/29 11:28:40;;;;;;;56.00;28.05;;;5.10;83.90;;;;;;5075484;28;20059;-43
2020/12/29 11:31:05;;;;;;;58.25;30.25;;;5.20;83.90;;;;;;5077622;28;20086;-43
2020/12/29 11:33:31;;;;;;;60.15;28.30;;;5.20;83.80;;;;;;5095501;28;20089;-44
2020/12/29 11:35:57;;;;;;;52.28;24.98;;;5.30;83.90;;;;;;5094655;28;20039;-44
2020/12/29 11:38:23;;;;;;;50.30;25.30;;;5.30;83.90;;;;;;5094910;28;20126;-45
2020/12/29 11:40:50;;;;;;;49.92;24.77;;;5.30;83.90;;;;;;5089589;28;20463;-43
2020/12/29 11:43:16;;;;;;;48.67;24.42;;;5.30;83.90;;;;;;5095129;28;20063;-43
2020/12/29 11:45:42;;;;;;;54.45;26.02;;;5.40;83.90;;;;;;5094248;28;20024;-43
2020/12/29 11:48:08;;;;;;;46.38;25.45;;;5.40;83.90;;;;;;5095411;28;20028;-43
2020/12/29 11:50:34;;;;;;;55.90;29.50;;;5.40;83.90;;;;;;5088260;28;20093;-44
2020/12/29 11:53:00;;;;;;;47.67;26.13;;;5.50;83.90;;;;;;5084368;28;20040;-44
2020/12/29 11:55:25;;;;;;;90.18;44.03;;;5.50;83.80;;;;;;5078366;28;20037;-45
2020/12/29 11:57:51;;;;;;;70.35;34.03;;;5.50;83.80;;;;;;5074537;28;20024;-43
2020/12/29 12:00:17;;;;;;;122.28;51.65;;;5.60;83.90;;;;;;5093723;28;20051;-43
2020/12/29 12:02:43;;;;;;;92.25;41.25;;;5.60;83.80;;;;;;5094523;28;20031;-43
2020/12/29 12:05:09;;;;;;;62.80;28.65;;;5.60;83.80;;;;;;5093622;28;20029;-43
2020/12/29 12:07:35;;;;;;;59.72;32.03;;;5.60;84.00;;;;;;5091490;28;20031;-44
2020/12/29 12:10:02;;;;;;;58.38;30.95;;;5.60;84.10;;;;;;5094244;28;20039;-42
2020/12/29 12:12:28;;;;;;;49.97;27.50;;;5.60;84.10;;;;;;5093838;28;20399;-43
2020/12/29 12:14:53;;;;;;;54.88;26.67;;;5.70;84.30;;;;;;5094244;28;20024;-43
2020/12/29 12:17:19;;;;;;;54.08;29.55;;;5.70;84.30;;;;;;5079980;28;20449;-43
2020/12/29 12:19:45;;;;;;;55.45;29.10;;;5.70;84.20;;;;;;5072728;28;20607;-43
2020/12/29 12:22:10;;;;;;;55.38;29.17;;;5.70;84.30;;;;;;5073823;28;20036;-44
2020/12/29 12:24:36;;;;;;;59.60;31.20;;;5.70;84.30;;;;;;5076970;28;20411;-43
2020/12/29 12:27:02;;;;;;;51.95;28.17;;;5.80;84.30;;;;;;5092139;28;20027;-43
2020/12/29 12:29:27;;;;;;;51.60;27.23;;;5.80;84.50;;;;;;5096424;28;20035;-43
2020/12/29 12:31:53;;;;;;;53.22;29.30;;;5.80;84.50;;;;;;5098652;28;20023;-43
2020/12/29 12:34:19;;;;;;;63.85;29.40;;;5.80;84.60;;;;;;5095308;28;20024;-43
2020/12/29 12:36:45;;;;;;;56.38;27.05;;;5.90;84.60;;;;;;5081026;28;20028;-44
2020/12/29 12:39:10;;;;;;;63.15;31.35;;;5.90;84.70;;;;;;5078508;28;20119;-42
2020/12/29 12:41:36;;;;;;;62.25;32.03;;;5.90;84.80;;;;;;5076535;28;20033;-44